createdAt,value
2023-01-25T00:00:52.751Z,19.15
2023-01-25T00:03:20.861Z,23.65
2023-01-25T00:05:49.300Z,19.50
2023-01-25T00:08:17.907Z,19.90
2023-01-25T00:10:45.852Z,19.33
2023-01-25T00:13:15.373Z,19.58
2023-01-25T00:15:43.641Z,20.10
2023-01-25T00:18:12.139Z,20.63
2023-01-25T00:20:40.311Z,20.60
2023-01-25T00:23:08.576Z,23.92
2023-01-25T00:25:36.819Z,20.27
2023-01-25T00:28:05.068Z,21.13
2023-01-25T00:30:34.990Z,19.98
2023-01-25T00:33:27.674Z,20.95
2023-01-25T00:35:58.595Z,18.00
2023-01-25T00:38:31.037Z,21.70
2023-01-25T00:40:59.912Z,16.92
2023-01-25T00:43:28.210Z,14.63
2023-01-25T00:46:03.355Z,18.58
2023-01-25T00:48:31.603Z,19.40
2023-01-25T00:51:02.187Z,17.75
2023-01-25T00:53:30.757Z,16.88
2023-01-25T00:55:58.907Z,19.45
2023-01-25T00:58:27.551Z,20.13
2023-01-25T01:00:57.249Z,16.23
2023-01-25T01:03:27.153Z,16.70
2023-01-25T01:06:01.994Z,17.20
2023-01-25T01:08:30.260Z,19.77
2023-01-25T01:11:02.317Z,19.55
2023-01-25T01:13:31.420Z,18.88
2023-01-25T01:16:02.754Z,17.02
2023-01-25T01:18:35.277Z,16.67
2023-01-25T01:21:03.723Z,19.17
2023-01-25T01:23:32.711Z,20.77
2023-01-25T01:26:01.720Z,18.73
2023-01-25T01:28:29.852Z,16.55
2023-01-25T01:31:01.250Z,17.42
2023-01-25T01:33:35.412Z,15.50
2023-01-25T01:36:09.422Z,16.67
2023-01-25T01:38:37.683Z,14.38
2023-01-25T01:41:06.331Z,15.68
2023-01-25T01:43:35.571Z,15.93
2023-01-25T01:46:06.269Z,17.10
2023-01-25T01:48:42.666Z,19.40
2023-01-25T01:51:19.677Z,17.10
2023-01-25T01:53:54.125Z,17.17
2023-01-25T01:56:27.635Z,16.45
2023-01-25T01:59:00.001Z,15.07
2023-01-25T02:01:28.495Z,17.13
2023-01-25T02:03:58.490Z,18.80
2023-01-25T02:06:33.573Z,16.80
2023-01-25T02:09:02.989Z,16.00
2023-01-25T02:11:33.670Z,17.23
2023-01-25T02:14:04.080Z,18.25
2023-01-25T02:16:32.491Z,16.63
2023-01-25T02:19:03.768Z,16.77
2023-01-25T02:21:40.856Z,20.05
2023-01-25T02:24:13.721Z,18.55
2023-01-25T02:26:44.723Z,20.45
2023-01-25T02:29:13.998Z,20.58
2023-01-25T02:31:45.758Z,22.10
2023-01-25T02:34:14.381Z,20.08
2023-01-25T02:36:42.812Z,19.08
2023-01-25T02:39:17.369Z,19.42
2023-01-25T02:41:49.033Z,16.67
2023-01-25T02:44:21.139Z,21.75
2023-01-25T02:46:49.398Z,21.75
2023-01-25T02:49:18.428Z,22.52
2023-01-25T02:51:49.018Z,17.40
2023-01-25T02:54:19.133Z,16.30
2023-01-25T02:56:48.846Z,16.58
2023-01-25T02:59:19.265Z,15.43
2023-01-25T03:01:52.482Z,18.65
2023-01-25T03:04:20.871Z,17.55
2023-01-25T03:06:50.498Z,18.50
2023-01-25T03:09:19.788Z,15.18
2023-01-25T03:11:51.869Z,19.08
2023-01-25T03:14:22.650Z,16.20
2023-01-25T03:16:51.709Z,16.98
2023-01-25T03:19:23.779Z,16.88
2023-01-25T03:21:52.845Z,16.60
2023-01-25T03:24:20.926Z,20.50
2023-01-25T03:27:08.755Z,18.35
2023-01-25T03:29:42.459Z,18.58
2023-01-25T03:32:15.769Z,15.90
2023-01-25T03:34:44.037Z,17.65
2023-01-25T03:37:12.526Z,18.17
2023-01-25T03:39:41.731Z,14.50
2023-01-25T03:42:12.263Z,18.45
2023-01-25T03:44:40.955Z,17.58
2023-01-25T03:47:09.119Z,16.58
2023-01-25T03:49:37.579Z,16.15
2023-01-25T03:52:07.485Z,17.63
2023-01-25T03:54:42.259Z,16.13
2023-01-25T03:57:13.081Z,16.98
2023-01-25T03:59:50.697Z,16.98
2023-01-25T04:02:18.807Z,16.98
2023-01-25T04:04:47.376Z,12.43
2023-01-25T04:07:18.343Z,16.45
2023-01-25T04:09:46.774Z,16.40
2023-01-25T04:12:16.268Z,15.10
2023-01-25T04:14:45.158Z,16.17
2023-01-25T04:17:23.162Z,13.35
2023-01-25T04:20:03.410Z,19.90
2023-01-25T04:22:37.577Z,19.38
2023-01-25T04:25:08.230Z,14.70
2023-01-25T04:27:40.434Z,17.50
2023-01-25T04:30:13.203Z,16.05
2023-01-25T04:32:42.336Z,16.25
2023-01-25T04:35:36.748Z,19.10
2023-01-25T04:38:07.843Z,17.10
2023-01-25T04:40:40.063Z,20.77
2023-01-25T04:43:09.746Z,14.88
2023-01-25T04:45:38.336Z,16.85
2023-01-25T04:48:13.933Z,15.40
2023-01-25T04:50:49.770Z,12.90
2023-01-25T04:53:22.053Z,17.67
2023-01-25T04:55:50.690Z,16.27
2023-01-25T04:58:20.333Z,15.73
2023-01-25T05:00:48.400Z,15.70
2023-01-25T05:03:16.570Z,18.10
2023-01-25T05:05:48.526Z,14.07
2023-01-25T05:08:21.075Z,16.52
2023-01-25T05:10:49.455Z,20.33
2023-01-25T05:13:35.331Z,16.17
2023-01-25T05:16:12.291Z,18.20
2023-01-25T05:18:48.378Z,16.52
2023-01-25T05:21:39.345Z,19.17
2023-01-25T05:24:08.643Z,17.52
2023-01-25T05:26:54.495Z,19.25
2023-01-25T05:29:24.470Z,19.58
2023-01-25T05:31:59.230Z,19.35
2023-01-25T05:34:27.446Z,16.80
2023-01-25T05:36:55.722Z,14.88
2023-01-25T05:40:23.049Z,19.70
2023-01-25T05:43:55.732Z,17.70
2023-01-25T05:47:26.634Z,27.70
2023-01-25T05:50:58.610Z,18.88
2023-01-25T05:54:25.429Z,26.10
2023-01-25T05:57:59.939Z,22.90
2023-01-25T06:01:28.950Z,19.63
2023-01-25T06:04:57.784Z,29.40
2023-01-25T06:08:24.632Z,25.85
2023-01-25T06:11:53.242Z,18.63
2023-01-25T06:15:21.330Z,25.30
2023-01-25T06:18:50.167Z,19.88
2023-01-25T06:22:35.323Z,9.57
2023-01-25T06:26:02.954Z,19.67
2023-01-25T06:29:29.878Z,15.13
2023-01-25T06:33:00.316Z,14.82
2023-01-25T06:36:27.173Z,27.73
2023-01-25T06:39:54.026Z,21.83
2023-01-25T06:43:20.983Z,20.30
2023-01-25T06:46:47.674Z,18.95
2023-01-25T06:50:16.615Z,15.18
2023-01-25T06:53:44.918Z,15.70
2023-01-25T06:57:12.851Z,20.42
2023-01-25T07:00:39.875Z,22.52
2023-01-25T07:04:08.210Z,15.85
2023-01-25T07:07:37.327Z,20.50
2023-01-25T07:11:05.604Z,20.42
2023-01-25T07:14:33.813Z,15.95
2023-01-25T07:18:14.771Z,19.52
2023-01-25T07:21:43.806Z,14.75
2023-01-25T07:25:13.099Z,18.83
2023-01-25T07:28:40.145Z,21.38
2023-01-25T07:31:08.956Z,9.93
2023-01-25T07:33:37.230Z,19.83
2023-01-25T07:36:07.531Z,13.65
2023-01-25T07:38:37.929Z,13.70
2023-01-25T07:41:06.489Z,15.05
2023-01-25T07:44:33.935Z,20.23
2023-01-25T07:48:12.411Z,11.70
2023-01-25T07:51:39.514Z,11.55
2023-01-25T07:55:10.488Z,13.98
2023-01-25T07:58:38.048Z,16.70
2023-01-25T08:01:12.653Z,9.68
2023-01-25T08:04:05.886Z,12.43
2023-01-25T08:06:39.300Z,11.93
2023-01-25T08:09:13.209Z,16.63
2023-01-25T08:11:42.737Z,16.90
2023-01-25T08:14:11.559Z,14.35
2023-01-25T08:16:40.342Z,12.13
2023-01-25T08:19:10.031Z,11.25
2023-01-25T08:21:38.806Z,11.38
2023-01-25T08:24:10.065Z,12.65
2023-01-25T08:26:38.586Z,14.30
2023-01-25T08:29:08.467Z,16.63
2023-01-25T08:31:37.367Z,16.88
2023-01-25T08:34:07.010Z,14.27
2023-01-25T08:36:35.356Z,15.73
2023-01-25T08:39:09.333Z,14.50
2023-01-25T08:41:39.233Z,17.88
2023-01-25T08:44:07.456Z,17.08
2023-01-25T08:46:35.855Z,18.58
2023-01-25T08:49:04.685Z,16.50
2023-01-25T08:51:34.713Z,15.45
2023-01-25T08:54:08.004Z,14.40
2023-01-25T08:56:39.992Z,16.10
2023-01-25T08:59:10.005Z,11.80
2023-01-25T09:01:38.052Z,15.02
2023-01-25T09:04:06.644Z,15.68
2023-01-25T09:06:35.199Z,12.10
2023-01-25T09:09:04.745Z,14.52
2023-01-25T09:11:37.109Z,14.35
2023-01-25T09:14:06.895Z,14.55
2023-01-25T09:16:35.062Z,14.10
2023-01-25T09:19:06.159Z,13.73
2023-01-25T09:21:35.927Z,13.57
2023-01-25T09:24:06.572Z,13.38
2023-01-25T09:26:37.009Z,10.88
2023-01-25T09:29:08.108Z,11.90
2023-01-25T09:31:41.516Z,14.23
2023-01-25T09:34:11.407Z,13.10
2023-01-25T09:36:39.733Z,13.15
2023-01-25T09:39:08.716Z,14.50
2023-01-25T09:42:15.492Z,12.70
2023-01-25T09:45:05.021Z,13.70
2023-01-25T09:47:43.901Z,11.65
2023-01-25T09:50:26.610Z,12.80
2023-01-25T09:53:19.178Z,12.10
2023-01-25T09:55:54.358Z,12.45
2023-01-25T09:58:29.208Z,11.57
2023-01-25T10:01:14.383Z,10.57
2023-01-25T10:03:49.266Z,11.45
2023-01-25T10:06:20.038Z,12.05
2023-01-25T10:08:54.814Z,13.98
2023-01-25T10:11:27.278Z,14.73
2023-01-25T10:13:57.022Z,15.60
2023-01-25T10:16:33.235Z,13.60
2023-01-25T10:19:14.486Z,14.57
2023-01-25T10:21:46.680Z,12.80
2023-01-25T10:24:38.000Z,13.02
2023-01-25T10:27:20.971Z,11.70
2023-01-25T10:29:50.927Z,10.10
2023-01-25T10:32:32.089Z,11.73
2023-01-25T10:35:17.447Z,11.13
2023-01-25T10:37:49.486Z,12.30
2023-01-25T10:40:22.856Z,11.30
2023-01-25T10:42:57.239Z,10.82
2023-01-25T10:45:25.982Z,11.88
2023-01-25T10:48:03.153Z,10.95
2023-01-25T10:50:46.771Z,13.85
2023-01-25T10:53:31.010Z,11.20
2023-01-25T10:56:22.096Z,11.07
2023-01-25T10:58:54.425Z,12.10
2023-01-25T11:01:29.354Z,16.70
2023-01-25T11:04:00.123Z,14.88
2023-01-25T11:06:34.275Z,11.68
2023-01-25T11:09:03.987Z,10.55
2023-01-25T11:11:36.433Z,11.27
2023-01-25T11:14:17.577Z,11.50
2023-01-25T11:16:48.951Z,12.90
2023-01-25T11:19:38.878Z,12.50
2023-01-25T11:22:22.008Z,14.13
2023-01-25T11:24:50.342Z,10.15
2023-01-25T11:27:21.874Z,13.00
2023-01-25T11:30:10.098Z,9.65
2023-01-25T11:32:40.425Z,9.60
2023-01-25T11:35:16.417Z,9.38
2023-01-25T11:38:02.512Z,13.07
2023-01-25T11:40:38.559Z,9.98
2023-01-25T11:43:21.516Z,12.10
2023-01-25T11:46:16.989Z,12.95
2023-01-25T11:49:01.139Z,10.10
2023-01-25T11:51:37.181Z,10.63
2023-01-25T11:54:35.558Z,9.85
2023-01-25T11:57:18.913Z,9.38
2023-01-25T12:00:06.599Z,11.15
2023-01-25T12:03:05.144Z,10.38
2023-01-25T12:05:44.688Z,9.38
2023-01-25T12:08:33.075Z,13.32
2023-01-25T12:11:10.650Z,8.95
2023-01-25T12:13:48.418Z,9.35
2023-01-25T12:16:38.524Z,10.27
2023-01-25T12:19:25.438Z,11.52
2023-01-25T12:22:13.496Z,10.50
2023-01-25T12:24:52.991Z,10.85
2023-01-25T12:27:35.772Z,12.65
2023-01-25T12:30:13.751Z,11.32
2023-01-25T12:32:50.137Z,10.55
2023-01-25T12:35:29.405Z,11.70
2023-01-25T12:38:02.190Z,9.90
2023-01-25T12:40:42.362Z,12.27
2023-01-25T12:43:17.915Z,12.27
2023-01-25T12:45:47.671Z,12.68
2023-01-25T12:48:19.824Z,12.45
2023-01-25T12:50:53.302Z,10.75
2023-01-25T12:53:24.924Z,10.10
2023-01-25T12:55:55.900Z,11.95
2023-01-25T12:58:38.248Z,9.15
2023-01-25T13:01:18.302Z,10.20
2023-01-25T13:04:05.552Z,9.90
2023-01-25T13:06:44.494Z,11.07
2023-01-25T13:09:22.407Z,11.55
2023-01-25T13:11:52.201Z,10.98
2023-01-25T13:14:30.005Z,10.77
2023-01-25T13:17:13.683Z,11.85
2023-01-25T13:19:45.709Z,11.70
2023-01-25T13:22:16.584Z,10.73
2023-01-25T13:25:12.753Z,11.18
2023-01-25T13:27:42.635Z,12.10
2023-01-25T13:30:32.096Z,12.52
2023-01-25T13:33:03.551Z,12.27
2023-01-25T13:35:43.580Z,11.82
2023-01-25T13:38:32.807Z,10.15
2023-01-25T13:41:12.144Z,10.82
2023-01-25T13:43:45.376Z,9.70
2023-01-25T13:46:18.907Z,12.05
2023-01-25T13:48:54.962Z,10.95
2023-01-25T13:51:24.171Z,10.70
2023-01-25T13:54:01.095Z,12.57
2023-01-25T13:56:33.336Z,11.00
2023-01-25T13:59:03.550Z,12.65
2023-01-25T14:01:34.825Z,12.00
2023-01-25T14:04:06.193Z,10.57
2023-01-25T14:06:38.286Z,13.38
2023-01-25T14:09:16.226Z,13.38
2023-01-25T14:11:47.604Z,10.13
2023-01-25T14:14:21.729Z,12.30
2023-01-25T14:17:03.502Z,11.75
2023-01-25T14:19:33.537Z,11.02
2023-01-25T14:22:29.524Z,12.77
2023-01-25T14:25:12.687Z,10.40
2023-01-25T14:27:46.190Z,13.18
2023-01-25T14:30:29.326Z,12.18
2023-01-25T14:32:59.381Z,10.85
2023-01-25T14:35:43.051Z,12.60
2023-01-25T14:38:27.515Z,11.10
2023-01-25T14:40:59.345Z,12.75
2023-01-25T14:43:28.172Z,11.57
2023-01-25T14:45:57.769Z,14.95
2023-01-25T14:48:36.468Z,14.98
2023-01-25T14:51:10.603Z,14.52
2023-01-25T14:53:42.245Z,15.30
2023-01-25T14:56:37.972Z,15.65
2023-01-25T14:59:07.464Z,14.13
2023-01-25T15:01:41.436Z,11.27
2023-01-25T15:04:14.212Z,12.18
2023-01-25T15:06:50.713Z,12.60
2023-01-25T15:09:38.357Z,11.57
2023-01-25T15:12:27.148Z,10.57
2023-01-25T15:14:57.409Z,9.30
2023-01-25T15:17:40.704Z,11.05
2023-01-25T15:20:29.076Z,9.77
2023-01-25T15:22:58.707Z,11.05
2023-01-25T15:25:26.818Z,10.50
2023-01-25T15:27:55.492Z,10.25
2023-01-25T15:30:24.559Z,10.07
2023-01-25T15:32:54.066Z,11.75
2023-01-25T15:35:22.305Z,11.57
2023-01-25T15:37:50.584Z,11.38
2023-01-25T15:40:18.973Z,11.90
2023-01-25T15:42:47.235Z,15.02
2023-01-25T15:45:15.975Z,14.30
2023-01-25T15:47:44.090Z,13.10
2023-01-25T15:50:19.941Z,15.05
2023-01-25T15:52:48.945Z,10.13
2023-01-25T15:55:17.234Z,11.60
2023-01-25T15:57:47.006Z,10.90
2023-01-25T16:00:20.127Z,10.68
2023-01-25T16:02:48.648Z,11.45
2023-01-25T16:05:18.642Z,13.32
2023-01-25T16:07:47.094Z,12.60
2023-01-25T16:10:23.642Z,13.98
2023-01-25T16:12:52.423Z,13.25
2023-01-25T16:15:21.358Z,15.20
2023-01-25T16:17:49.775Z,14.52
2023-01-25T16:20:22.469Z,17.88
2023-01-25T16:22:50.610Z,13.38
2023-01-25T16:25:18.925Z,14.07
2023-01-25T16:27:48.477Z,15.32
2023-01-25T16:30:23.594Z,14.20
2023-01-25T16:32:52.837Z,16.73
2023-01-25T16:35:22.986Z,14.98
2023-01-25T16:37:51.883Z,14.32
2023-01-25T16:40:24.619Z,14.45
2023-01-25T16:42:53.331Z,15.10
2023-01-25T16:45:21.354Z,15.35
2023-01-25T16:47:49.613Z,19.38
2023-01-25T16:50:20.044Z,15.43
2023-01-25T16:52:51.690Z,15.10
2023-01-25T16:55:20.832Z,13.63
2023-01-25T16:57:52.324Z,9.88
2023-01-25T17:00:21.651Z,12.50
2023-01-25T17:02:58.761Z,12.05
2023-01-25T17:05:33.798Z,12.70
2023-01-25T17:08:03.325Z,13.98
2023-01-25T17:10:34.830Z,12.65
2023-01-25T17:13:03.212Z,11.85
2023-01-25T17:15:31.355Z,13.93
2023-01-25T17:17:59.616Z,9.75
2023-01-25T17:20:27.653Z,12.80
2023-01-25T17:22:55.984Z,13.95
2023-01-25T17:25:26.415Z,15.27
2023-01-25T17:27:54.513Z,13.45
2023-01-25T17:30:22.908Z,15.93
2023-01-25T17:32:51.206Z,17.38
2023-01-25T17:35:19.838Z,14.98
2023-01-25T17:37:47.775Z,14.60
2023-01-25T17:40:16.105Z,15.50
2023-01-25T17:42:45.927Z,16.33
2023-01-25T17:45:14.656Z,13.65
2023-01-25T17:47:43.228Z,14.38
2023-01-25T17:50:12.361Z,14.70
2023-01-25T17:52:41.091Z,13.07
2023-01-25T17:55:09.961Z,14.70
2023-01-25T17:57:38.051Z,13.60
2023-01-25T18:00:17.206Z,14.73
2023-01-25T18:02:47.052Z,14.82
2023-01-25T18:05:15.784Z,15.45
2023-01-25T18:07:45.270Z,18.10
2023-01-25T18:10:14.382Z,13.90
2023-01-25T18:12:43.827Z,16.38
2023-01-25T18:15:15.953Z,16.77
2023-01-25T18:17:44.820Z,16.13
2023-01-25T18:20:13.720Z,12.38
2023-01-25T18:22:42.928Z,13.63
2023-01-25T18:25:31.756Z,16.52
2023-01-25T18:28:00.278Z,13.48
2023-01-25T18:30:35.931Z,13.38
2023-01-25T18:33:05.684Z,14.95
2023-01-25T18:35:33.887Z,13.45
2023-01-25T18:38:02.858Z,14.55
2023-01-25T18:40:31.273Z,15.98
2023-01-25T18:42:59.532Z,17.25
2023-01-25T18:45:27.693Z,17.33
2023-01-25T18:47:57.414Z,19.20
2023-01-25T18:50:25.382Z,21.45
2023-01-25T18:52:54.291Z,19.08
2023-01-25T18:55:22.290Z,21.67
2023-01-25T18:57:50.747Z,20.50
2023-01-25T19:00:19.308Z,17.00
2023-01-25T19:02:47.912Z,16.77
2023-01-25T19:05:20.035Z,16.92
2023-01-25T19:07:48.063Z,22.00
2023-01-25T19:10:16.506Z,22.83
2023-01-25T19:12:45.106Z,24.75
2023-01-25T19:15:13.158Z,22.70
2023-01-25T19:17:41.308Z,21.25
2023-01-25T19:20:10.892Z,16.05
2023-01-25T19:22:41.257Z,16.35
2023-01-25T19:25:11.237Z,16.17
2023-01-25T19:27:39.449Z,16.58
2023-01-25T19:30:09.018Z,18.48
2023-01-25T19:32:37.318Z,19.75
2023-01-25T19:35:08.014Z,21.70
2023-01-25T19:37:36.502Z,15.55
2023-01-25T19:40:07.348Z,15.38
2023-01-25T19:42:35.345Z,17.80
2023-01-25T19:45:03.534Z,17.92
2023-01-25T19:47:31.849Z,19.67
2023-01-25T19:50:02.607Z,19.35
2023-01-25T19:52:30.749Z,20.98
2023-01-25T19:54:58.855Z,20.77
2023-01-25T19:57:28.573Z,19.23
2023-01-25T19:59:56.872Z,19.60
2023-01-25T20:02:25.463Z,18.10
2023-01-25T20:04:53.553Z,18.67
2023-01-25T20:07:22.351Z,18.67
2023-01-25T20:09:50.370Z,18.40
2023-01-25T20:12:19.052Z,18.05
2023-01-25T20:14:48.668Z,17.77
2023-01-25T20:17:16.903Z,18.33
2023-01-25T20:19:44.941Z,16.58
2023-01-25T20:22:14.031Z,17.13
2023-01-25T20:24:42.688Z,14.70
2023-01-25T20:27:10.854Z,16.20
2023-01-25T20:29:40.037Z,16.48
2023-01-25T20:32:20.074Z,17.33
2023-01-25T20:34:54.834Z,16.85
2023-01-25T20:37:23.473Z,14.40
2023-01-25T20:39:51.563Z,15.73
2023-01-25T20:42:19.745Z,17.23
2023-01-25T20:44:48.057Z,17.55
2023-01-25T20:47:17.892Z,19.27
2023-01-25T20:49:46.092Z,18.73
2023-01-25T20:52:14.226Z,19.83
2023-01-25T20:54:43.043Z,18.25
2023-01-25T20:57:11.136Z,16.70
2023-01-25T20:59:39.280Z,19.02
2023-01-25T21:02:07.320Z,15.30
2023-01-25T21:04:36.987Z,14.90
2023-01-25T21:07:05.273Z,16.02
2023-01-25T21:09:33.893Z,16.58
2023-01-25T21:12:02.121Z,18.10
2023-01-25T21:14:30.338Z,17.40
2023-01-25T21:16:58.359Z,18.60
2023-01-25T21:19:28.697Z,18.27
2023-01-25T21:21:58.545Z,16.60
2023-01-25T21:24:27.158Z,17.95
2023-01-25T21:26:55.204Z,13.35
2023-01-25T21:29:23.322Z,17.73
2023-01-25T21:31:53.363Z,16.20
2023-01-25T21:34:21.655Z,16.83
2023-01-25T21:36:50.378Z,15.57
2023-01-25T21:39:20.161Z,17.13
2023-01-25T21:41:48.139Z,13.50
2023-01-25T21:44:33.622Z,18.67
2023-01-25T21:47:28.855Z,16.30
2023-01-25T21:50:07.403Z,17.17
2023-01-25T21:52:36.468Z,19.13
2023-01-25T21:55:06.887Z,17.60
2023-01-25T21:57:35.640Z,19.20
2023-01-25T22:00:05.359Z,19.83
2023-01-25T22:02:33.515Z,18.52
2023-01-25T22:05:01.791Z,18.17
2023-01-25T22:07:32.207Z,17.35
2023-01-25T22:10:01.673Z,16.10
2023-01-25T22:12:31.648Z,18.27
2023-01-25T22:14:59.746Z,16.98
2023-01-25T22:17:28.708Z,15.77
2023-01-25T22:19:56.704Z,15.43
2023-01-25T22:22:24.991Z,16.38
2023-01-25T22:24:53.181Z,18.60
2023-01-25T22:27:42.048Z,17.35
2023-01-25T22:30:12.526Z,16.90
2023-01-25T22:32:40.908Z,17.45
2023-01-25T22:35:09.652Z,17.02
2023-01-25T22:37:38.241Z,17.73
2023-01-25T22:40:08.534Z,20.05
2023-01-25T22:42:37.957Z,18.58
2023-01-25T22:45:07.685Z,21.02
2023-01-25T22:47:36.114Z,20.75
2023-01-25T22:50:04.401Z,24.65
2023-01-25T22:52:32.482Z,27.58
2023-01-25T22:55:00.466Z,19.90
2023-01-25T22:57:28.575Z,20.05
2023-01-25T22:59:58.121Z,23.10
2023-01-25T23:02:26.142Z,22.95
2023-01-25T23:04:54.624Z,21.77
2023-01-25T23:07:22.589Z,24.85
2023-01-25T23:09:51.739Z,21.60
2023-01-25T23:12:21.849Z,22.48
2023-01-25T23:14:52.957Z,22.50
2023-01-25T23:17:41.669Z,21.90
2023-01-25T23:20:13.408Z,23.30
2023-01-25T23:22:42.321Z,23.38
2023-01-25T23:25:11.591Z,26.55
2023-01-25T23:27:39.847Z,23.17
2023-01-25T23:30:10.502Z,25.48
2023-01-25T23:32:49.288Z,22.30
2023-01-25T23:35:18.827Z,23.13
2023-01-25T23:37:48.581Z,22.90
2023-01-25T23:40:17.779Z,23.25
2023-01-25T23:42:46.235Z,23.60
2023-01-25T23:45:14.724Z,24.20
2023-01-25T23:47:44.310Z,25.75
2023-01-25T23:50:13.400Z,25.00
2023-01-25T23:52:41.841Z,22.35
2023-01-25T23:55:11.113Z,20.65
2023-01-25T23:57:39.226Z,23.75
